Time;durP1;ratioP1;P1;durP2;ratioP2;P2;SDS_P1;SDS_P2;PMS_P1;PMS_P2;Temp;Humidity;BMP_temperature;BMP_pressure;BME280_temperature;BME280_humidity;BME280_pressure;Samples;Min_cycle;Max_cycle;Signal;HPM_P1;HPM_P2
2022/08/19 00:01:19;;;;;;;;;;;16.90;99.90;;;;;;5051024;28;19932;-83
2022/08/19 00:03:45;;;;;;;;;;;16.90;99.90;;;;;;5069335;28;19979;-84
2022/08/19 00:06:10;;;;;;;;;;;16.90;99.90;;;;;;5069555;28;20410;-84
2022/08/19 00:08:36;;;;;;;;;;;16.90;99.90;;;;;;5050961;28;19925;-85
2022/08/19 00:11:02;;;;;;;;;;;16.80;99.90;;;;;;5051232;28;19924;-85
2022/08/19 00:13:28;;;;;;;;;;;16.80;99.90;;;;;;5069772;28;19928;-84
2022/08/19 00:15:54;;;;;;;;;;;16.80;99.90;;;;;;5069387;28;20391;-83
2022/08/19 00:18:19;;;;;;;;;;;16.80;99.90;;;;;;5068586;28;19932;-83
2022/08/19 00:20:45;;;;;;;;;;;16.80;99.90;;;;;;5069127;28;20350;-84
2022/08/19 00:23:10;;;;;;;;;;;16.70;99.90;;;;;;5069346;28;19939;-84
2022/08/19 00:25:36;;;;;;;;;;;16.70;99.90;;;;;;5068803;28;19924;-84
2022/08/19 00:28:02;;;;;;;;;;;16.70;99.90;;;;;;5068907;28;19924;-85
2022/08/19 00:30:27;;;;;;;;;;;16.70;99.90;;;;;;5069271;28;19924;-85
2022/08/19 00:32:54;;;;;;;;;;;16.60;99.90;;;;;;5068465;28;20007;-84
2022/08/19 00:35:20;;;;;;;;;;;16.60;99.90;;;;;;5061967;28;19925;-84
2022/08/19 00:37:47;;;;;;;;;;;16.60;99.90;;;;;;5069020;28;20029;-84
2022/08/19 00:40:12;;;;;;;;;;;16.60;99.90;;;;;;5068656;28;19999;-85
2022/08/19 00:42:38;;;;;;;;;;;16.60;99.90;;;;;;5067084;28;20434;-84
2022/08/19 00:45:08;;;;;;;;;;;16.60;99.90;;;;;;5051868;28;19924;-85
2022/08/19 00:47:33;;;;;;;;;;;16.50;99.90;;;;;;5049732;28;19925;-84
2022/08/19 00:49:59;;;;;;;;;;;16.50;99.90;;;;;;5068809;28;20405;-83
2022/08/19 00:52:28;;;;;;;;;;;16.50;99.90;;;;;;5068595;28;20035;-83
2022/08/19 00:54:54;;;;;;;;;;;16.50;99.90;;;;;;5068473;28;19978;-83
2022/08/19 00:57:24;;;;;;;;;;;16.50;99.90;;;;;;5067845;28;19924;-83
2022/08/19 00:59:52;;;;;;;;;;;16.40;99.90;;;;;;5068362;28;20345;-84
2022/08/19 01:02:18;;;;;;;;;;;16.40;99.90;;;;;;5068094;28;19921;-84
2022/08/19 01:04:43;;;;;;;;;;;16.40;99.90;;;;;;5068092;28;19987;-83
2022/08/19 01:07:09;;;;;;;;;;;16.40;99.90;;;;;;5068225;28;19928;-83
2022/08/19 01:09:34;;;;;;;;;;;16.40;99.90;;;;;;5067888;28;19924;-84
2022/08/19 01:12:00;;;;;;;;;;;16.40;99.90;;;;;;5067691;28;19924;-83
2022/08/19 01:14:26;;;;;;;;;;;16.40;99.90;;;;;;5068934;28;19928;-83
2022/08/19 01:16:54;;;;;;;;;;;16.30;99.90;;;;;;5067522;28;19925;-83
2022/08/19 01:19:25;;;;;;;;;;;16.30;99.90;;;;;;5068478;28;19971;-84
2022/08/19 01:22:13;;;;;;;;;;;16.30;99.90;;;;;;5067784;28;19932;-84
2022/08/19 01:24:38;;;;;;;;;;;16.30;99.90;;;;;;5067952;28;19925;-83
2022/08/19 01:27:05;;;;;;;;;;;16.30;99.90;;;;;;5049777;28;20386;-83
2022/08/19 01:29:31;;;;;;;;;;;16.30;99.90;;;;;;5068105;28;19925;-84
2022/08/19 01:31:57;;;;;;;;;;;16.30;99.90;;;;;;5067411;28;19927;-83
2022/08/19 01:34:23;;;;;;;;;;;16.20;99.90;;;;;;5068011;28;19924;-83
2022/08/19 01:36:48;;;;;;;;;;;16.20;99.90;;;;;;5067830;28;20393;-83
2022/08/19 01:39:17;;;;;;;;;;;16.20;99.90;;;;;;5067832;28;19952;-84
2022/08/19 01:41:43;;;;;;;;;;;16.20;99.90;;;;;;5066312;28;19929;-83
2022/08/19 01:44:09;;;;;;;;;;;16.20;99.90;;;;;;5067692;28;20329;-83
2022/08/19 01:46:34;;;;;;;;;;;16.10;99.90;;;;;;5048591;28;19930;-84
2022/08/19 01:49:00;;;;;;;;;;;16.10;99.90;;;;;;5067936;28;19924;-84
2022/08/19 01:51:26;;;;;;;;;;;16.10;99.90;;;;;;5067961;28;19925;-84
2022/08/19 01:53:52;;;;;;;;;;;16.00;99.90;;;;;;5066632;28;19994;-84
2022/08/19 01:56:18;;;;;;;;;;;16.00;99.90;;;;;;5067449;28;20387;-84
2022/08/19 01:58:47;;;;;;;;;;;16.10;99.90;;;;;;5066981;28;19932;-84
2022/08/19 02:01:13;;;;;;;;;;;16.00;99.90;;;;;;5066785;28;19924;-84
2022/08/19 02:03:39;;;;;;;;;;;15.90;99.90;;;;;;5066939;28;19969;-84
2022/08/19 02:06:07;;;;;;;;;;;16.00;99.90;;;;;;5067145;28;20349;-83
2022/08/19 02:08:36;;;;;;;;;;;16.00;99.90;;;;;;5067091;28;19940;-84
2022/08/19 02:11:01;;;;;;;;;;;16.00;99.90;;;;;;5067347;28;19928;-84
2022/08/19 02:13:27;;;;;;;;;;;15.90;99.90;;;;;;5049713;28;20058;-84
2022/08/19 02:15:52;;;;;;;;;;;15.90;99.90;;;;;;5048289;28;19951;-84
2022/08/19 02:18:18;;;;;;;;;;;15.90;99.90;;;;;;5067238;28;19929;-85
2022/08/19 02:20:44;;;;;;;;;;;15.90;99.90;;;;;;5066782;28;20014;-84
2022/08/19 02:23:11;;;;;;;;;;;15.90;99.90;;;;;;5067379;28;19925;-84
2022/08/19 02:25:38;;;;;;;;;;;15.90;99.90;;;;;;5067377;28;20342;-84
2022/08/19 02:28:03;;;;;;;;;;;15.90;99.90;;;;;;5067202;28;19970;-85
2022/08/19 02:30:29;;;;;;;;;;;15.90;99.90;;;;;;5066704;28;19924;-82
2022/08/19 02:32:55;;;;;;;;;;;15.90;99.90;;;;;;5066342;28;19935;-84
2022/08/19 02:35:20;;;;;;;;;;;15.90;99.90;;;;;;5053186;28;19924;-84
2022/08/19 02:40:34;;;;;;;;;;;15.80;99.90;;;;;;5066829;28;19978;-84
2022/08/19 02:43:00;;;;;;;;;;;15.80;99.90;;;;;;5066939;28;20405;-84
2022/08/19 02:45:26;;;;;;;;;;;15.80;99.90;;;;;;5067116;28;20397;-84
2022/08/19 02:47:52;;;;;;;;;;;15.80;99.90;;;;;;5065209;28;19936;-84
2022/08/19 02:50:18;;;;;;;;;;;15.80;99.90;;;;;;5067099;28;20019;-84
2022/08/19 02:52:45;;;;;;;;;;;15.80;99.90;;;;;;5048307;28;20007;-84
2022/08/19 02:55:10;;;;;;;;;;;15.80;99.90;;;;;;5066969;28;19968;-84
2022/08/19 02:57:36;;;;;;;;;;;15.80;99.90;;;;;;5066735;28;20401;-83
2022/08/19 03:00:03;;;;;;;;;;;15.70;99.90;;;;;;5066833;28;19932;-84
2022/08/19 03:02:30;;;;;;;;;;;15.80;99.90;;;;;;5065394;28;19925;-80
2022/08/19 03:04:55;;;;;;;;;;;15.70;99.90;;;;;;5067256;28;19929;-84
2022/08/19 03:07:21;;;;;;;;;;;15.70;99.90;;;;;;5066121;28;20345;-84
2022/08/19 03:09:46;;;;;;;;;;;15.70;99.90;;;;;;5066426;28;19924;-83
2022/08/19 03:12:12;;;;;;;;;;;15.70;99.90;;;;;;5066485;28;20386;-84
2022/08/19 03:14:37;;;;;;;;;;;15.70;99.90;;;;;;5066280;28;19950;-84
2022/08/19 03:17:04;;;;;;;;;;;15.80;99.90;;;;;;5065862;28;19931;-83
2022/08/19 03:19:31;;;;;;;;;;;15.80;99.90;;;;;;5068348;28;19920;-82
2022/08/19 03:21:57;;;;;;;;;;;15.80;99.90;;;;;;5070848;28;20472;-85
2022/08/19 03:24:23;;;;;;;;;;;15.80;99.90;;;;;;5070366;28;19925;-84
2022/08/19 03:26:55;;;;;;;;;;;15.80;99.90;;;;;;5051979;28;19944;-84
2022/08/19 03:29:20;;;;;;;;;;;15.80;99.90;;;;;;5052445;28;20370;-84
2022/08/19 03:31:50;;;;;;;;;;;15.80;99.90;;;;;;5068662;28;19927;-84
2022/08/19 03:34:17;;;;;;;;;;;15.80;99.90;;;;;;5054192;28;20367;-84
2022/08/19 03:36:44;;;;;;;;;;;15.80;99.90;;;;;;5069876;28;20052;-84
2022/08/19 03:39:10;;;;;;;;;;;15.80;99.90;;;;;;5070170;28;19993;-84
2022/08/19 03:41:36;;;;;;;;;;;15.80;99.90;;;;;;5069842;28;19931;-84
2022/08/19 03:44:04;;;;;;;;;;;15.80;99.90;;;;;;5069543;28;19966;-85
2022/08/19 03:46:31;;;;;;;;;;;15.80;99.90;;;;;;5068744;28;19932;-84
2022/08/19 03:48:57;;;;;;;;;;;15.70;99.90;;;;;;5052357;28;19931;-84
2022/08/19 03:51:27;;;;;;;;;;;15.70;99.90;;;;;;5070034;28;19924;-84
2022/08/19 03:53:54;;;;;;;;;;;15.70;99.90;;;;;;5069738;28;19925;-83
2022/08/19 03:56:19;;;;;;;;;;;15.70;99.90;;;;;;5051884;28;20417;-84
2022/08/19 03:58:45;;;;;;;;;;;15.70;99.90;;;;;;5069441;28;19959;-84
2022/08/19 04:01:12;;;;;;;;;;;15.70;99.90;;;;;;5069055;28;19932;-84
2022/08/19 04:03:38;;;;;;;;;;;15.60;99.90;;;;;;5051602;28;20574;-84
2022/08/19 04:06:15;;;;;;;;;;;15.60;99.90;;;;;;5069500;28;19936;-84
2022/08/19 04:08:42;;;;;;;;;;;15.60;99.90;;;;;;5051421;28;19930;-84
2022/08/19 04:11:15;;;;;;;;;;;15.60;99.90;;;;;;5069633;28;19947;-82
2022/08/19 04:13:43;;;;;;;;;;;15.60;99.90;;;;;;5069311;28;19921;-83
2022/08/19 04:16:09;;;;;;;;;;;15.60;99.90;;;;;;5050846;28;19924;-83
2022/08/19 04:18:35;;;;;;;;;;;15.60;99.90;;;;;;5068798;28;19916;-82
2022/08/19 04:21:01;;;;;;;;;;;15.60;99.90;;;;;;5069664;28;19931;-84
2022/08/19 04:23:27;;;;;;;;;;;15.60;99.90;;;;;;5069814;28;20066;-84
2022/08/19 04:25:53;;;;;;;;;;;15.60;99.90;;;;;;5050917;28;19931;-83
2022/08/19 04:28:18;;;;;;;;;;;15.60;99.90;;;;;;5069498;28;19928;-84
2022/08/19 04:30:47;;;;;;;;;;;15.50;99.90;;;;;;5067989;28;19924;-84
2022/08/19 04:33:15;;;;;;;;;;;15.50;99.90;;;;;;5069026;28;20035;-83
2022/08/19 04:35:42;;;;;;;;;;;15.60;99.90;;;;;;5069063;28;19989;-84
2022/08/19 04:38:08;;;;;;;;;;;15.50;99.90;;;;;;5068926;28;19925;-83
2022/08/19 04:43:18;;;;;;;;;;;15.60;99.90;;;;;;5050819;28;20439;-83
2022/08/19 04:45:44;;;;;;;;;;;15.50;99.90;;;;;;5068016;28;19964;-84
2022/08/19 04:48:11;;;;;;;;;;;15.50;99.90;;;;;;5068463;28;19985;-84
2022/08/19 04:50:39;;;;;;;;;;;15.50;99.90;;;;;;5068569;28;19924;-83
2022/08/19 04:53:04;;;;;;;;;;;15.50;99.90;;;;;;5068468;28;19932;-83
2022/08/19 04:55:30;;;;;;;;;;;15.50;99.90;;;;;;5068680;28;19925;-83
2022/08/19 04:57:56;;;;;;;;;;;15.60;99.90;;;;;;5068990;28;19976;-83
2022/08/19 05:00:21;;;;;;;;;;;15.60;99.90;;;;;;5049409;28;19924;-84
2022/08/19 05:02:49;;;;;;;;;;;15.60;99.90;;;;;;5068176;28;19924;-84
2022/08/19 05:05:14;;;;;;;;;;;15.60;99.90;;;;;;5068253;28;20335;-83
2022/08/19 05:07:40;;;;;;;;;;;15.60;99.90;;;;;;5067522;28;19969;-83
2022/08/19 05:10:06;;;;;;;;;;;15.60;99.90;;;;;;5068352;28;19925;-84
2022/08/19 05:12:32;;;;;;;;;;;15.60;99.90;;;;;;5068078;28;19932;-84
2022/08/19 05:14:58;;;;;;;;;;;15.60;99.90;;;;;;5050866;28;19924;-84
2022/08/19 05:17:24;;;;;;;;;;;15.60;99.90;;;;;;5067186;28;19924;-83
2022/08/19 05:22:37;;;;;;;;;;;15.70;99.90;;;;;;5067758;28;20370;-84
2022/08/19 05:25:07;;;;;;;;;;;15.70;99.90;;;;;;5068114;28;19924;-84
2022/08/19 05:27:33;;;;;;;;;;;15.70;99.90;;;;;;5067826;28;19924;-83
2022/08/19 05:29:58;;;;;;;;;;;15.80;99.90;;;;;;5067950;28;20011;-79
2022/08/19 05:32:24;;;;;;;;;;;15.80;99.90;;;;;;5049151;28;19931;-83
2022/08/19 05:34:50;;;;;;;;;;;15.90;99.90;;;;;;5067430;28;20003;-83
2022/08/19 05:37:16;;;;;;;;;;;15.90;99.90;;;;;;5067988;28;19925;-83
2022/08/19 05:39:42;;;;;;;;;;;15.90;99.90;;;;;;5059299;28;19974;-83
2022/08/19 05:42:08;;;;;;;;;;;16.00;99.90;;;;;;5032348;28;19924;-85
2022/08/19 05:44:36;;;;;;;;;;;16.10;99.90;;;;;;5066218;28;19931;-85
2022/08/19 05:47:04;;;;;;;;;;;16.00;99.90;;;;;;5065944;28;19924;-86
2022/08/19 05:49:30;;;;;;;;;;;16.10;99.90;;;;;;5067173;28;19933;-84
2022/08/19 05:51:56;;;;;;;;;;;16.10;99.90;;;;;;5049838;28;19927;-84
2022/08/19 05:54:22;;;;;;;;;;;16.20;99.90;;;;;;5067223;28;19924;-83
2022/08/19 05:56:49;;;;;;;;;;;16.30;99.90;;;;;;5066903;28;19928;-83
2022/08/19 05:59:16;;;;;;;;;;;16.30;99.90;;;;;;5067352;28;20335;-83
2022/08/19 06:01:45;;;;;;;;;;;16.30;99.90;;;;;;5066126;28;19968;-83
2022/08/19 06:04:11;;;;;;;;;;;16.40;99.90;;;;;;5067137;28;20023;-83
2022/08/19 06:06:36;;;;;;;;;;;16.40;99.90;;;;;;5066823;28;20363;-83
2022/08/19 06:09:03;;;;;;;;;;;16.50;99.90;;;;;;5067081;28;19932;-83
2022/08/19 06:11:36;;;;;;;;;;;16.50;99.90;;;;;;5067086;28;19925;-83
2022/08/19 06:14:03;;;;;;;;;;;16.60;99.90;;;;;;5067111;28;20348;-83
2022/08/19 06:16:31;;;;;;;;;;;16.60;99.90;;;;;;5066220;28;20023;-83
2022/08/19 06:18:59;;;;;;;;;;;16.60;99.90;;;;;;5067449;28;19928;-76
2022/08/19 06:21:27;;;;;;;;;;;16.70;99.90;;;;;;5065611;28;19990;-81
2022/08/19 06:23:54;;;;;;;;;;;16.70;99.90;;;;;;5065173;28;20375;-85
2022/08/19 06:26:20;;;;;;;;;;;16.70;99.90;;;;;;5048867;28;19925;-85
2022/08/19 06:28:46;;;;;;;;;;;16.80;99.90;;;;;;5065703;28;19925;-78
2022/08/19 06:31:20;;;;;;;;;;;16.80;99.90;;;;;;5065735;28;19925;-78
2022/08/19 06:33:46;;;;;;;;;;;16.90;99.90;;;;;;5064774;28;20599;-92
2022/08/19 06:36:31;;;;;;;;;;;16.90;99.90;;;;;;5067213;28;20493;-89
2022/08/19 06:38:57;;;;;;;;;;;17.00;99.90;;;;;;5067389;28;20422;-81
2022/08/19 06:41:23;;;;;;;;;;;17.00;99.90;;;;;;5066084;28;19924;-82
2022/08/19 06:43:49;;;;;;;;;;;17.00;99.90;;;;;;5066314;28;20043;-85
2022/08/19 06:46:17;;;;;;;;;;;17.10;99.90;;;;;;5065367;28;19976;-87
2022/08/19 06:48:42;;;;;;;;;;;17.10;99.90;;;;;;5066038;28;20049;-80
2022/08/19 06:51:08;;;;;;;;;;;17.20;99.90;;;;;;5053262;28;19928;-86
2022/08/19 06:53:33;;;;;;;;;;;17.30;99.90;;;;;;5051823;28;20294;-86
2022/08/19 06:56:02;;;;;;;;;;;17.30;99.90;;;;;;5070144;28;20439;-86
2022/08/19 06:58:31;;;;;;;;;;;17.30;99.90;;;;;;5070716;28;19925;-85
2022/08/19 07:01:00;;;;;;;;;;;17.40;99.90;;;;;;5069829;28;19994;-84
2022/08/19 07:03:28;;;;;;;;;;;17.40;99.90;;;;;;5039524;28;19925;-85
2022/08/19 07:05:53;;;;;;;;;;;17.50;99.90;;;;;;5068941;28;19929;-91
2022/08/19 07:08:19;;;;;;;;;;;17.60;99.90;;;;;;5052709;28;19925;-81
2022/08/19 07:10:45;;;;;;;;;;;17.60;99.90;;;;;;5069567;28;19932;-83
2022/08/19 07:13:11;;;;;;;;;;;17.70;99.90;;;;;;5070483;28;19925;-84
2022/08/19 07:15:37;;;;;;;;;;;17.70;99.90;;;;;;5069303;28;20281;-76
2022/08/19 07:18:03;;;;;;;;;;;17.80;99.90;;;;;;5070626;28;19940;-84
2022/08/19 07:20:28;;;;;;;;;;;17.90;99.90;;;;;;5082387;28;19993;-79
2022/08/19 07:22:54;;;;;;;;;;;17.90;99.90;;;;;;5075066;28;20023;-87
2022/08/19 07:25:20;;;;;;;;;;;18.00;99.90;;;;;;5070235;28;19924;-83
2022/08/19 07:27:48;;;;;;;;;;;18.00;99.90;;;;;;5069604;28;19986;-86
2022/08/19 07:30:13;;;;;;;;;;;18.10;99.90;;;;;;5069180;28;19959;-82
2022/08/19 07:32:39;;;;;;;;;;;18.10;99.90;;;;;;5069699;28;20378;-76
2022/08/19 07:35:06;;;;;;;;;;;18.20;99.90;;;;;;5069469;28;19974;-76
2022/08/19 07:37:31;;;;;;;;;;;18.20;99.90;;;;;;5069240;28;20086;-83
2022/08/19 07:39:57;;;;;;;;;;;18.30;99.90;;;;;;5052145;28;20473;-76
2022/08/19 07:42:22;;;;;;;;;;;18.30;99.90;;;;;;5069151;28;19925;-76
2022/08/19 07:44:48;;;;;;;;;;;18.40;99.90;;;;;;5050839;28;20985;-76
2022/08/19 07:47:15;;;;;;;;;;;18.40;99.90;;;;;;5067576;28;19928;-76
2022/08/19 07:49:41;;;;;;;;;;;18.50;99.90;;;;;;5051795;28;19931;-76
2022/08/19 07:52:07;;;;;;;;;;;18.50;99.90;;;;;;5069296;28;20395;-76
2022/08/19 07:54:35;;;;;;;;;;;18.50;99.90;;;;;;5069758;28;19924;-76
2022/08/19 07:57:00;;;;;;;;;;;18.60;99.90;;;;;;5068192;28;19969;-76
2022/08/19 07:59:26;;;;;;;;;;;18.60;99.90;;;;;;5069253;28;20007;-76
2022/08/19 08:01:52;;;;;;;;;;;18.70;99.90;;;;;;5067561;28;20025;-76
2022/08/19 08:09:46;;;;;;;;;;;18.90;99.90;;;;;;5065965;28;19932;-77
2022/08/19 08:12:14;;;;;;;;;;;18.90;99.90;;;;;;5055210;28;19925;-77
2022/08/19 08:14:48;;;;;;;;;;;19.00;99.90;;;;;;5068259;28;19971;-77
2022/08/19 08:17:15;;;;;;;;;;;19.00;99.90;;;;;;5034325;28;20057;-77
2022/08/19 08:19:41;;;;;;;;;;;19.10;99.90;;;;;;5068204;28;20306;-78
2022/08/19 08:22:07;;;;;;;;;;;19.20;99.90;;;;;;5048426;28;19932;-77
2022/08/19 08:24:33;;;;;;;;;;;19.20;99.90;;;;;;5067866;28;20422;-77
2022/08/19 08:27:00;;;;;;;;;;;19.30;99.90;;;;;;5068147;28;19975;-77
2022/08/19 08:29:27;;;;;;;;;;;19.40;99.90;;;;;;5069179;28;19998;-77
2022/08/19 08:31:53;;;;;;;;;;;19.40;99.90;;;;;;5046685;28;20296;-77
2022/08/19 08:34:19;;;;;;;;;;;19.50;99.90;;;;;;5068230;28;20417;-78
2022/08/19 08:36:45;;;;;;;;;;;19.50;99.90;;;;;;5066657;28;19925;-79
2022/08/19 08:39:13;;;;;;;;;;;19.60;99.90;;;;;;5068232;28;19924;-78
2022/08/19 08:41:40;;;;;;;;;;;19.70;99.90;;;;;;5067607;28;20284;-78
2022/08/19 08:44:06;;;;;;;;;;;19.70;99.90;;;;;;5045895;28;19970;-79
2022/08/19 08:46:41;;;;;;;;;;;19.70;99.90;;;;;;5067677;28;19924;-79
2022/08/19 08:49:08;;;;;;;;;;;19.80;99.90;;;;;;5066613;28;19925;-78
2022/08/19 08:51:33;;;;;;;;;;;19.90;99.90;;;;;;5067963;28;20382;-78
2022/08/19 08:53:59;;;;;;;;;;;19.90;99.90;;;;;;5067885;28;19925;-78
2022/08/19 08:56:28;;;;;;;;;;;20.00;99.90;;;;;;5068368;28;19990;-79
2022/08/19 08:59:03;;;;;;;;;;;20.00;99.90;;;;;;5068478;28;19916;-77
2022/08/19 09:01:29;;;;;;;;;;;20.10;99.90;;;;;;5067139;28;19929;-78
2022/08/19 09:03:54;;;;;;;;;;;20.10;99.90;;;;;;5068646;28;19963;-77
2022/08/19 09:06:31;;;;;;;;;;;20.20;99.90;;;;;;5067301;28;19925;-78
2022/08/19 09:09:06;;;;;;;;;;;20.20;99.90;;;;;;5050214;28;19924;-78
2022/08/19 09:11:46;;;;;;;;;;;20.20;99.90;;;;;;5067611;28;20413;-78
2022/08/19 09:14:22;;;;;;;;;;;20.30;99.90;;;;;;5067916;28;19929;-78
2022/08/19 09:16:49;;;;;;;;;;;20.30;99.90;;;;;;5066185;28;19931;-79
2022/08/19 09:19:17;;;;;;;;;;;20.40;99.90;;;;;;5049431;28;19925;-79
2022/08/19 09:21:42;;;;;;;;;;;20.40;99.90;;;;;;5066082;28;19925;-78
2022/08/19 09:24:08;;;;;;;;;;;20.50;99.90;;;;;;5066769;28;19931;-78
2022/08/19 09:26:34;;;;;;;;;;;20.50;99.90;;;;;;5067457;28;20353;-78
2022/08/19 09:29:01;;;;;;;;;;;20.60;99.90;;;;;;5068019;28;19970;-78
2022/08/19 09:31:28;;;;;;;;;;;20.60;99.90;;;;;;5067332;28;19967;-78
2022/08/19 09:33:57;;;;;;;;;;;20.60;99.90;;;;;;5068220;28;19925;-78
2022/08/19 09:36:24;;;;;;;;;;;20.70;99.90;;;;;;5067262;28;19935;-79
2022/08/19 09:38:51;;;;;;;;;;;20.70;99.90;;;;;;5067141;28;20019;-79
2022/08/19 09:41:18;;;;;;;;;;;20.70;99.90;;;;;;5067378;28;19924;-80
2022/08/19 09:43:45;;;;;;;;;;;20.70;99.90;;;;;;5067326;28;20053;-79
2022/08/19 09:46:12;;;;;;;;;;;20.70;99.90;;;;;;5065859;28;19932;-79
2022/08/19 09:48:42;;;;;;;;;;;20.70;99.90;;;;;;5048369;28;20298;-79
2022/08/19 09:51:08;;;;;;;;;;;20.80;99.90;;;;;;5029590;28;19924;-79
2022/08/19 09:53:37;;;;;;;;;;;20.80;99.90;;;;;;5060016;28;19939;-77
2022/08/19 09:56:03;;;;;;;;;;;20.90;99.90;;;;;;5048371;28;19924;-77
2022/08/19 09:58:29;;;;;;;;;;;20.90;99.90;;;;;;5065479;28;19925;-77
2022/08/19 10:00:56;;;;;;;;;;;21.00;99.90;;;;;;5069542;28;20398;-77
2022/08/19 10:03:22;;;;;;;;;;;21.00;99.90;;;;;;5048130;28;19925;-76
2022/08/19 10:05:50;;;;;;;;;;;21.00;99.90;;;;;;5068863;28;19924;-77
2022/08/19 10:08:21;;;;;;;;;;;21.00;99.90;;;;;;5047931;28;20318;-77
2022/08/19 10:10:47;;;;;;;;;;;21.10;99.90;;;;;;5066577;28;20004;-76
2022/08/19 10:13:13;;;;;;;;;;;21.20;99.90;;;;;;5065817;28;20015;-76
2022/08/19 10:15:40;;;;;;;;;;;21.20;99.90;;;;;;5065064;28;20003;-77
2022/08/19 10:18:06;;;;;;;;;;;21.40;99.90;;;;;;5066575;28;19966;-78
2022/08/19 10:20:31;;;;;;;;;;;21.40;99.90;;;;;;5066581;28;19925;-79
2022/08/19 10:22:59;;;;;;;;;;;21.50;99.90;;;;;;5067301;28;19924;-78
2022/08/19 10:25:26;;;;;;;;;;;21.50;99.90;;;;;;5066665;28;20011;-78
2022/08/19 10:27:51;;;;;;;;;;;21.50;99.90;;;;;;5065169;28;19925;-77
2022/08/19 10:30:17;;;;;;;;;;;21.50;99.90;;;;;;5080009;28;19925;-79
2022/08/19 10:32:42;;;;;;;;;;;21.50;99.90;;;;;;5086128;28;19928;-79
2022/08/19 10:35:08;;;;;;;;;;;21.50;99.90;;;;;;5067257;28;19925;-79
2022/08/19 10:37:34;;;;;;;;;;;21.50;99.90;;;;;;5066570;28;19929;-80
2022/08/19 10:40:02;;;;;;;;;;;21.50;99.90;;;;;;5067051;28;19944;-80
2022/08/19 10:42:27;;;;;;;;;;;21.50;99.90;;;;;;5067414;28;19953;-79
2022/08/19 10:44:53;;;;;;;;;;;21.50;99.90;;;;;;5066268;28;19924;-79
2022/08/19 10:47:18;;;;;;;;;;;21.60;99.90;;;;;;5087267;28;19935;-79
2022/08/19 10:52:34;;;;;;;;;;;21.60;99.90;;;;;;5055905;28;19929;-80
2022/08/19 10:57:44;;;;;;;;;;;21.60;99.90;;;;;;5056265;28;19968;-81
2022/08/19 11:00:10;;;;;;;;;;;21.60;99.90;;;;;;5043966;28;19980;-79
2022/08/19 11:02:36;;;;;;;;;;;21.60;99.90;;;;;;5064604;28;20081;-78
2022/08/19 11:05:01;;;;;;;;;;;21.70;99.90;;;;;;5066394;28;19952;-78
2022/08/19 11:07:26;;;;;;;;;;;21.80;99.90;;;;;;5066008;28;19928;-78
2022/08/19 11:09:52;;;;;;;;;;;21.80;99.90;;;;;;5065801;28;19924;-79
2022/08/19 11:12:19;;;;;;;;;;;21.80;99.90;;;;;;5041006;28;20493;-82
2022/08/19 11:14:44;;;;;;;;;;;21.90;99.90;;;;;;5053346;28;19970;-80
2022/08/19 11:17:13;;;;;;;;;;;21.90;99.90;;;;;;5058892;28;19924;-80
2022/08/19 11:19:39;;;;;;;;;;;21.90;99.90;;;;;;5058688;28;19925;-79
2022/08/19 11:22:09;;;;;;;;;;;21.90;99.90;;;;;;5071888;28;20113;-80
2022/08/19 11:24:35;;;;;;;;;;;21.90;99.90;;;;;;5068730;28;20027;-78
2022/08/19 11:27:04;;;;;;;;;;;21.90;99.90;;;;;;5062633;28;20208;-79
2022/08/19 11:29:30;;;;;;;;;;;22.00;99.90;;;;;;5055026;28;19930;-79
2022/08/19 11:31:56;;;;;;;;;;;22.10;99.90;;;;;;5058029;28;20007;-78
2022/08/19 11:34:22;;;;;;;;;;;22.10;99.90;;;;;;5064747;28;20019;-78
2022/08/19 11:36:49;;;;;;;;;;;22.10;99.90;;;;;;5065042;28;19924;-79
2022/08/19 11:39:16;;;;;;;;;;;22.10;99.90;;;;;;5042979;28;20359;-80
2022/08/19 11:41:42;;;;;;;;;;;22.00;99.90;;;;;;5051291;28;19932;-79
2022/08/19 11:44:07;;;;;;;;;;;22.00;99.90;;;;;;5068264;28;19936;-79
2022/08/19 11:46:34;;;;;;;;;;;22.00;99.90;;;;;;5066891;28;19924;-81
2022/08/19 11:49:00;;;;;;;;;;;22.00;99.90;;;;;;5067748;28;20417;-78
2022/08/19 11:51:26;;;;;;;;;;;22.00;99.90;;;;;;5059426;28;20329;-78
2022/08/19 11:53:53;;;;;;;;;;;22.10;99.90;;;;;;5067609;28;20557;-78
2022/08/19 11:56:19;;;;;;;;;;;22.10;99.90;;;;;;5057144;28;19928;-78
2022/08/19 11:58:45;;;;;;;;;;;22.10;99.90;;;;;;5066994;28;20375;-79
2022/08/19 12:01:11;;;;;;;;;;;22.10;99.90;;;;;;5068537;28;19924;-79
2022/08/19 12:03:37;;;;;;;;;;;22.20;99.90;;;;;;5068582;28;20298;-79
2022/08/19 12:06:06;;;;;;;;;;;22.20;99.90;;;;;;5061711;28;20082;-79
2022/08/19 12:08:35;;;;;;;;;;;22.30;99.90;;;;;;5067347;28;19924;-80
2022/08/19 12:11:01;;;;;;;;;;;22.30;99.90;;;;;;5067346;28;20063;-79
2022/08/19 12:13:28;;;;;;;;;;;22.30;99.90;;;;;;5068488;28;19924;-79
2022/08/19 12:15:53;;;;;;;;;;;22.40;99.90;;;;;;5066977;28;19925;-79
2022/08/19 12:18:19;;;;;;;;;;;22.40;99.90;;;;;;5067987;28;20409;-80
2022/08/19 12:20:45;;;;;;;;;;;22.50;99.90;;;;;;5066705;28;19924;-78
2022/08/19 12:23:11;;;;;;;;;;;22.60;99.90;;;;;;5040923;28;19967;-78
2022/08/19 12:25:37;;;;;;;;;;;22.70;99.90;;;;;;5067117;28;19991;-78
2022/08/19 12:28:03;;;;;;;;;;;22.70;99.90;;;;;;5068820;28;19925;-80
2022/08/19 12:30:28;;;;;;;;;;;22.80;99.90;;;;;;5067394;28;19930;-78
2022/08/19 12:32:54;;;;;;;;;;;22.80;99.90;;;;;;5068532;28;20383;-78
2022/08/19 12:35:22;;;;;;;;;;;22.80;99.90;;;;;;5068137;28;19924;-78
2022/08/19 12:37:48;;;;;;;;;;;22.80;99.90;;;;;;5066385;28;19928;-79
2022/08/19 12:40:15;;;;;;;;;;;22.80;99.90;;;;;;5067388;28;20455;-78
2022/08/19 12:42:43;;;;;;;;;;;22.80;99.90;;;;;;5067924;28;19950;-79
2022/08/19 12:45:10;;;;;;;;;;;22.80;99.90;;;;;;5066019;28;19974;-78
2022/08/19 12:47:35;;;;;;;;;;;22.80;99.90;;;;;;5067555;28;19929;-79
2022/08/19 12:50:01;;;;;;;;;;;22.80;99.90;;;;;;5066938;28;19951;-80
2022/08/19 12:52:27;;;;;;;;;;;22.80;99.90;;;;;;5066056;28;20350;-82
2022/08/19 12:54:54;;;;;;;;;;;22.80;99.90;;;;;;5066840;28;20634;-83
2022/08/19 12:57:19;;;;;;;;;;;22.80;99.90;;;;;;5065986;28;19973;-85
2022/08/19 12:59:45;;;;;;;;;;;22.80;99.90;;;;;;5065509;28;20328;-84
2022/08/19 13:02:10;;;;;;;;;;;22.80;99.90;;;;;;5066641;28;19924;-84
2022/08/19 13:04:36;;;;;;;;;;;22.80;99.90;;;;;;5059289;28;19926;-80
2022/08/19 13:07:01;;;;;;;;;;;22.80;99.90;;;;;;5058580;28;20343;-84
2022/08/19 13:09:27;;;;;;;;;;;22.90;99.90;;;;;;5046332;28;19932;-80
2022/08/19 13:11:52;;;;;;;;;;;22.90;99.90;;;;;;5055590;28;20753;-82
2022/08/19 13:14:18;;;;;;;;;;;22.90;99.90;;;;;;5055016;28;19928;-84
2022/08/19 13:16:44;;;;;;;;;;;22.90;99.90;;;;;;5049642;28;19943;-82
2022/08/19 13:19:10;;;;;;;;;;;22.90;99.90;;;;;;5049344;28;20023;-83
2022/08/19 13:21:36;;;;;;;;;;;22.80;99.90;;;;;;5066371;28;20302;-82
2022/08/19 13:24:01;;;;;;;;;;;22.80;99.90;;;;;;5050502;28;20000;-83
2022/08/19 13:26:27;;;;;;;;;;;22.80;99.90;;;;;;5063556;28;20258;-84
2022/08/19 13:34:32;;;;;;;;;;;22.90;99.90;;;;;;5067686;28;20511;-84
2022/08/19 13:36:58;;;;;;;;;;;22.90;99.90;;;;;;5067657;28;19931;-85
2022/08/19 13:39:24;;;;;;;;;;;22.90;99.90;;;;;;5049929;28;19925;-84
2022/08/19 13:41:49;;;;;;;;;;;23.00;99.90;;;;;;5066945;28;20315;-85
2022/08/19 13:44:18;;;;;;;;;;;23.00;99.90;;;;;;5065338;28;19936;-84
2022/08/19 13:46:46;;;;;;;;;;;23.00;99.90;;;;;;5066732;28;19924;-85
2022/08/19 13:49:14;;;;;;;;;;;23.00;99.90;;;;;;5066613;28;21505;-83
2022/08/19 13:51:41;;;;;;;;;;;23.00;99.90;;;;;;5066793;28;19924;-84
2022/08/19 13:54:08;;;;;;;;;;;23.10;99.90;;;;;;5067091;28;19924;-84
2022/08/19 13:56:33;;;;;;;;;;;23.10;99.90;;;;;;5066568;28;19924;-83
2022/08/19 13:58:59;;;;;;;;;;;23.10;99.90;;;;;;5066163;28;19954;-84
2022/08/19 14:01:26;;;;;;;;;;;23.10;99.90;;;;;;5067488;28;19951;-84
2022/08/19 14:03:52;;;;;;;;;;;23.00;99.90;;;;;;5066089;28;19931;-84
2022/08/19 14:06:18;;;;;;;;;;;23.00;99.90;;;;;;5066673;28;19924;-82
2022/08/19 14:08:44;;;;;;;;;;;23.10;99.90;;;;;;5065521;28;19947;-83
2022/08/19 14:11:09;;;;;;;;;;;23.10;99.90;;;;;;5066704;28;19924;-82
2022/08/19 14:13:35;;;;;;;;;;;23.10;99.90;;;;;;5065052;28;20013;-79
2022/08/19 14:16:00;;;;;;;;;;;23.00;99.90;;;;;;5065938;28;19931;-79
2022/08/19 14:18:26;;;;;;;;;;;23.00;99.90;;;;;;5066349;28;19925;-80
2022/08/19 14:20:52;;;;;;;;;;;23.10;99.90;;;;;;5066148;28;20001;-79
2022/08/19 14:23:17;;;;;;;;;;;23.10;99.90;;;;;;5065242;28;19932;-79
2022/08/19 14:25:44;;;;;;;;;;;23.10;99.90;;;;;;5066164;28;19924;-79
2022/08/19 14:28:09;;;;;;;;;;;23.30;99.90;;;;;;5066658;28;19925;-79
2022/08/19 14:30:36;;;;;;;;;;;23.20;99.90;;;;;;5065402;28;20007;-79
2022/08/19 14:33:03;;;;;;;;;;;23.30;99.90;;;;;;5048881;28;19920;-79
2022/08/19 14:35:29;;;;;;;;;;;23.20;99.90;;;;;;5066242;28;19925;-79
2022/08/19 14:37:55;;;;;;;;;;;23.30;99.90;;;;;;5048880;28;19924;-80